Date,TemperatureHighF,TemperatureAvgF,TemperatureLowF,DewpointHighF,DewpointAvgF,DewpointLowF,HumidityHigh,HumidityAvg,HumidityLow,PressureMaxIn,PressureMinIn,WindSpeedMaxMPH,WindSpeedAvgMPH,GustSpeedMaxMPH,PrecipitationSumIn
2013-2-1,33,29,23,16,11,5,57,46,36,30.09,29.61,11,4,19,0.00
2013-2-2,30,26,20,22,12,5,81,56,43,30.26,30.05,9,2,11,0.00
2013-2-3,33,27,22,23,21,18,88,78,65,30.05,29.71,6,1,9,0.00
2013-2-4,31,26,23,22,13,7,87,58,39,29.95,29.72,15,2,19,0.00
2013-2-5,27,25,23,25,18,11,91,75,59,30.03,29.91,4,1,7,0.00
2013-2-6,41,32,27,30,21,6,93,69,40,30.28,29.90,8,2,12,0.02
2013-2-7,31,26,19,18,8,4,72,48,33,30.52,30.29,5,1,9,0.00
2013-2-8,33,31,25,32,28,18,96,88,73,30.46,29.35,13,5,20,0.01
2013-2-9,30,20,14,29,18,11,96,93,90,30.16,29.34,7,2,14,0.00
2013-2-10,33,21,11,26,17,8,91,85,63,30.39,30.17,4,0,5,0.00
2013-2-11,46,35,17,45,34,15,97,95,87,30.36,29.61,4,1,9,0.67
2013-2-12,46,40,31,42,31,25,97,73,49,29.89,29.61,10,2,15,0.00
2013-2-13,42,35,29,28,26,23,86,70,51,29.88,29.65,4,1,8,0.00
2013-2-14,44,35,29,30,27,22,94,75,41,30.01,29.68,4,1,9,0.13
2013-2-15,48,39,30,39,34,27,96,85,57,30.04,29.94,5,1,14,0.03
2013-2-16,37,34,31,34,32,30,97,92,80,29.94,29.64,7,1,9,0.00
2013-2-17,31,23,17,29,15,4,92,72,43,29.67,29.35,12,4,21,0.00
2013-2-18,32,24,15,8,4,2,57,44,29,30.17,29.68,11,4,25,0.00
2013-2-19,48,38,24,45,30,7,96,73,44,30.17,29.58,5,1,12,0.68
2013-2-20,44,34,26,42,22,10,95,63,41,29.79,29.56,12,4,17,0.00
2013-2-21,35,29,26,17,15,14,66,56,44,30.14,29.78,9,3,16,0.00
2013-2-22,38,33,28,26,23,18,78,68,60,30.35,30.16,8,2,11,0.00
2013-2-23,39,35,32,35,31,26,95,84,74,30.32,29.85,5,2,13,0.29
2013-2-24,42,37,32,41,36,30,96,95,93,29.86,29.61,11,3,14,0.79
2013-2-25,41,35,29,32,30,28,96,83,62,30.25,29.86,8,1,10,0.07
2013-2-26,44,38,33,34,30,27,90,75,53,30.32,30.11,6,1,10,0.00
2013-2-27,44,42,38,43,41,34,97,95,85,30.11,29.55,16,6,26,0.26
2013-2-28,46,40,36,44,39,36,97,94,83,29.64,29.50,3,0,6,0.00